Погода METAR - Красноярск

Кемерово, Абакан, Красноярск, Новосибирск
Код METAR: UNKL 240000Z 32001MPS 9000 0300E PRFG SCT002 00/00 Q1020 R11/290050 TEMPO 0350 FZFG VV002 RMK QFE740

Погода - Сейчас

Время: 2021-09-24 07:00, местное
Направление ветра: Северо-запад (320°)
Скорость ветра: 1 м/с
Видимость:
Температура: 0°C
Точка росы: 0°C
Атмосферное давление: 1020 гПа

Архив погоды

Время, местное Направление Скорость, м/с Температура, °C Точка росы, °C Давление, гПа
2021-09-24 07:00 СЗ (320°) 1 0 0 1020
2021-09-23 09:00 ЮВ (130°) 2 3 3 1018
2021-09-23 01:00 Переменный 1 0 0 1018
2021-09-22 13:00 З (270°) 5 6 1 1015
2021-09-21 21:00 ЮЗ (210°) 3 2 1 1012
2021-09-21 19:00 ЮЗ (210°) 3 4 2 1011
2021-09-21 13:00 З (270°) 4 5 3 1010
2021-09-21 10:30 ЗЮЗ (250°) 5 5 2 1010
2021-09-21 09:30 ЗЮЗ (240°) 5 5 2 1010
2021-09-21 03:00 ЮЗ (220°) 3 3 1 1010
2021-09-20 19:30 СЗ (300°) 3 5 4 1010
2021-09-20 18:30 ЮВ (120°) 1 6 5 1010
2021-09-20 13:30 З (270°) 6 8 2 1008
2021-09-19 21:30 ЮВ (130°) 2 8 8 1005
2021-09-19 19:00 Переменный 1 11 8 1006
2021-09-19 13:00 СЗ (310°) 2 15 6 1008
2021-09-19 05:00 З (270°) 1 6 6 1009
2021-09-19 01:00 ССЗ (340°) 1 7 7 1009
2021-09-18 18:30 ЗЮЗ (240°) 2 16 10 1007
2021-09-18 03:00 ЮВ (130°) 3 0 0
2021-09-17 23:00 В (90°) 2 0 0
2021-09-17 15:00 ВЮВ (110°) 3 17 13 1008
2021-09-17 12:00 В (90°) 3 13 13 1009
2021-09-17 00:00 В (90°) 2 0 1100
2021-09-16 20:00 В (100°) 2 10 10 1013
2021-09-16 11:00 Переменный 1 9 9 1012
2021-09-16 03:00 ЮЮВ (160°) 1 7 7 1013
2021-09-16 02:00 Штиль 0 7 6 1013
2021-09-16 00:00 Штиль 0 6 5 1014
2021-09-15 23:30 Штиль 0 7 5 1014
2021-09-15 12:30 Ю (190°) 3 10 0 1017
2021-09-15 09:00 ЮЮЗ (200°) 3 6 2 1019
2021-09-15 05:30 ЗЮЗ (250°) 3 2 2 1019
2021-09-14 11:30 ЮЗ (210°) 6, порывы до 11 11 1 1017
2021-09-12 21:00 Штиль 0 11 9 1004
2021-09-12 16:00 ЮЗ (210°) 4, порывы до 9 18 7 1004
2021-09-12 01:30 Ю (190°) 3 9 8 1008
2021-09-10 17:30 ЗЮЗ (260°) 3 13 4 1013
2021-09-10 16:30 ЮЗ (230°) 4 14 4 1012
2021-09-10 15:30 ЗЮЗ (250°) 5 14 5 1012
2021-09-10 05:00 ЮЗ (210°) 3 7 2 1012
2021-09-09 23:00 ЮЗ (210°) 3 8 1 1012
2021-09-09 11:00 Переменный 1 12 9 1001
2021-09-09 03:00 ЮВ (140°) 3 8 6 1004
2021-09-08 13:00 ВЮВ (110°) 5 18 6 1012
2021-09-07 20:30 Переменный 1 11 3 1017
2021-09-07 13:30 Переменный 2 18 1 1018
2021-09-07 04:30 Штиль 0 -1 -1 1017